Time;durP1;ratioP1;P1;durP2;ratioP2;P2;SDS_P1;SDS_P2;PMS_P1;PMS_P2;Temp;Humidity;BMP_temperature;BMP_pressure;BME280_temperature;BME280_humidity;BME280_pressure;Samples;Min_cycle;Max_cycle;Signal;HPM_P1;HPM_P2
2022/05/20 00:01:03;;;;;;;38.47;29.20;;;17.50;99.90;;;;;;5033204;28;20426;-56
2022/05/20 00:03:29;;;;;;;40.67;30.73;;;17.50;99.90;;;;;;5033419;28;20504;-56
2022/05/20 00:05:55;;;;;;;39.03;31.37;;;17.30;99.90;;;;;;5033109;28;20425;-56
2022/05/20 00:08:21;;;;;;;41.37;30.23;;;17.20;99.90;;;;;;5033222;28;20440;-56
2022/05/20 00:10:46;;;;;;;39.17;30.63;;;17.30;99.90;;;;;;5033665;28;20198;-56
2022/05/20 00:13:12;;;;;;;42.30;30.37;;;17.20;99.90;;;;;;5032977;28;20361;-56
2022/05/20 00:15:38;;;;;;;39.60;32.07;;;17.10;99.90;;;;;;5032995;28;20226;-56
2022/05/20 00:18:04;;;;;;;41.03;30.50;;;17.10;99.90;;;;;;5033302;28;20183;-56
2022/05/20 00:20:30;;;;;;;46.63;32.07;;;17.00;99.90;;;;;;5031883;28;20559;-56
2022/05/20 00:22:56;;;;;;;39.97;33.70;;;16.90;99.90;;;;;;5033147;28;20502;-56
2022/05/20 00:28:07;;;;;;;43.97;32.03;;;16.80;99.90;;;;;;5014786;28;20422;-58
2022/05/20 00:30:33;;;;;;;49.13;33.70;;;16.80;99.90;;;;;;5033057;28;20947;-56
2022/05/20 00:32:59;;;;;;;47.57;35.07;;;16.70;99.90;;;;;;5032714;28;20506;-56
2022/05/20 00:35:26;;;;;;;47.70;34.23;;;16.70;99.90;;;;;;5032901;28;20302;-56
2022/05/20 00:37:52;;;;;;;49.87;35.07;;;16.70;99.90;;;;;;5033196;28;20498;-56
2022/05/20 00:40:21;;;;;;;53.43;36.47;;;16.70;99.90;;;;;;5032767;28;20441;-56
2022/05/20 00:42:48;;;;;;;48.37;34.07;;;16.60;99.90;;;;;;5033005;28;20620;-56
2022/05/20 00:45:14;;;;;;;54.10;35.63;;;16.60;99.90;;;;;;5032574;28;20912;-55
2022/05/20 00:47:41;;;;;;;54.27;37.60;;;16.60;99.90;;;;;;5032724;28;20441;-57
2022/05/20 00:50:14;;;;;;;50.73;36.53;;;16.50;99.90;;;;;;5033063;28;20426;-56
2022/05/20 00:52:43;;;;;;;50.00;36.00;;;16.40;99.90;;;;;;5013090;28;20407;-56
2022/05/20 00:55:13;;;;;;;57.83;37.40;;;16.30;99.90;;;;;;5012929;28;20466;-56
2022/05/20 00:57:45;;;;;;;51.53;37.57;;;16.40;99.90;;;;;;5012785;28;20403;-56
2022/05/20 01:00:15;;;;;;;57.73;37.73;;;16.40;99.90;;;;;;5029556;28;20437;-55
2022/05/20 01:02:41;;;;;;;59.77;39.70;;;16.40;99.90;;;;;;5012646;28;20769;-55
2022/05/20 01:05:23;;;;;;;60.40;37.17;;;16.30;99.90;;;;;;5031884;28;20434;-55
2022/05/20 01:07:48;;;;;;;60.73;37.97;;;16.20;99.90;;;;;;5031997;28;20202;-55
2022/05/20 01:10:15;;;;;;;61.00;36.50;;;16.10;99.90;;;;;;5032388;28;20414;-55
2022/05/20 01:12:41;;;;;;;56.60;37.67;;;16.00;99.90;;;;;;5032130;28;20265;-55
2022/05/20 01:15:08;;;;;;;58.47;37.87;;;16.00;99.90;;;;;;5032145;28;20983;-55
2022/05/20 01:17:33;;;;;;;57.40;35.90;;;15.80;99.90;;;;;;5031971;28;20209;-55
2022/05/20 01:19:59;;;;;;;57.00;37.23;;;15.80;99.90;;;;;;5032203;28;20441;-54
2022/05/20 01:22:59;;;;;;;53.73;34.20;;;15.80;99.90;;;;;;5031654;28;20191;-54
2022/05/20 01:25:26;;;;;;;53.67;33.70;;;15.70;99.90;;;;;;5032060;28;20180;-54
2022/05/20 01:27:52;;;;;;;50.30;33.73;;;15.60;99.90;;;;;;5031886;28;20425;-54
2022/05/20 01:30:21;;;;;;;54.20;34.30;;;15.50;99.90;;;;;;5032179;28;20441;-55
2022/05/20 01:32:47;;;;;;;57.03;37.87;;;15.50;99.90;;;;;;5031733;28;20194;-55
2022/05/20 01:35:39;;;;;;;58.73;37.30;;;15.40;99.90;;;;;;5032202;28;20457;-53
2022/05/20 01:38:06;;;;;;;58.90;36.90;;;15.40;99.90;;;;;;5031990;28;20433;-54
2022/05/20 01:40:49;;;;;;;56.73;34.73;;;15.20;99.90;;;;;;5031663;28;20438;-54
2022/05/20 01:43:56;;;;;;;53.77;34.67;;;15.10;99.90;;;;;;5031992;28;21081;-54
2022/05/20 01:46:27;;;;;;;56.57;35.50;;;15.10;60.50;;;;;;5031236;28;20432;-55
2022/05/20 01:48:58;;;;;;;61.73;34.83;;;15.00;38.70;;;;;;5031454;28;20500;-55
2022/05/20 01:51:28;;;;;;;57.23;33.97;;;14.90;1.00;;;;;;5031146;28;20532;-54
2022/05/20 01:54:04;;;;;;;55.33;35.17;;;14.80;1.00;;;;;;5032389;28;20466;-55
2022/05/20 01:56:44;;;;;;;51.37;32.47;;;14.70;99.50;;;;;;5031998;28;20479;-55
2022/05/20 01:59:23;;;;;;;53.50;30.90;;;14.60;1.00;;;;;;5031327;28;20393;-54
2022/05/20 02:02:24;;;;;;;43.63;28.37;;;14.50;1.00;;;;;;5031249;28;20496;-54
2022/05/20 02:05:06;;;;;;;43.60;27.30;;;14.40;1.00;;;;;;5031539;28;20408;-55
2022/05/20 02:07:36;;;;;;;48.83;28.77;;;14.40;17.50;;;;;;5030220;28;20436;-54
2022/05/20 02:10:11;;;;;;;41.90;26.57;;;14.30;1.00;;;;;;5031121;28;20434;-54
2022/05/20 02:12:46;;;;;;;42.90;24.27;;;14.30;1.00;;;;;;5031832;28;20512;-54
2022/05/20 02:15:39;;;;;;;32.10;23.47;;;14.20;1.00;;;;;;5029602;28;20483;-54
2022/05/20 02:18:09;;;;;;;31.27;22.50;;;14.20;99.90;;;;;;5030681;28;20954;-54
2022/05/20 02:20:42;;;;;;;31.83;22.10;;;14.20;1.00;;;;;;5031302;28;20806;-54
2022/05/20 02:23:15;;;;;;;35.70;21.70;;;14.20;5.30;;;;;;5030016;28;20417;-54
2022/05/20 02:25:46;;;;;;;29.83;20.77;;;14.20;99.90;;;;;;5031053;28;20533;-55
2022/05/20 02:28:25;;;;;;;26.20;18.90;;;14.20;99.90;;;;;;5031382;28;20492;-55
2022/05/20 02:30:51;;;;;;;28.17;19.80;;;14.30;99.90;;;;;;5030493;28;20769;-55
2022/05/20 02:33:23;;;;;;;27.57;17.47;;;14.10;75.10;;;;;;5031009;28;20426;-54
2022/05/20 02:35:49;;;;;;;24.67;16.60;;;14.10;1.00;;;;;;5031231;28;20438;-54
2022/05/20 02:38:18;;;;;;;23.50;15.33;;;14.00;99.90;;;;;;5031430;28;21038;-54
2022/05/20 02:40:47;;;;;;;19.47;12.40;;;13.90;90.30;;;;;;5030952;28;20186;-55
2022/05/20 02:43:13;;;;;;;18.40;12.60;;;13.90;99.90;;;;;;5031458;28;20408;-54
2022/05/20 02:45:41;;;;;;;18.13;12.57;;;13.80;99.90;;;;;;5029373;28;20422;-54
2022/05/20 02:48:07;;;;;;;16.20;11.73;;;13.80;1.00;;;;;;5030963;28;20286;-54
2022/05/20 02:50:32;;;;;;;21.03;13.80;;;13.80;99.90;;;;;;5029449;28;20998;-54
2022/05/20 02:52:58;;;;;;;22.53;13.13;;;13.70;99.90;;;;;;5031237;28;20258;-54
2022/05/20 02:55:24;;;;;;;17.67;12.73;;;13.60;1.00;;;;;;5030840;28;20338;-54
2022/05/20 02:57:50;;;;;;;27.63;14.03;;;13.50;99.90;;;;;;5030822;28;20497;-55
2022/05/20 03:05:45;;;;;;;25.70;13.27;;;13.30;99.90;;;;;;5031076;28;21068;-54
2022/05/20 03:08:11;;;;;;;20.80;12.77;;;13.30;1.00;;;;;;5030680;28;20410;-54
2022/05/20 03:10:36;;;;;;;16.77;12.13;;;13.30;93.70;;;;;;5030106;28;20179;-54
2022/05/20 03:13:04;;;;;;;14.73;10.83;;;13.20;1.00;;;;;;5030501;28;20611;-54
2022/05/20 03:15:30;;;;;;;19.07;11.67;;;13.10;1.00;;;;;;5030370;28;20667;-54
2022/05/20 03:17:56;;;;;;;16.10;11.97;;;13.10;25.70;;;;;;5029353;28;20425;-54
2022/05/20 03:20:23;;;;;;;15.90;11.50;;;13.10;1.00;;;;;;5030035;28;20495;-54
2022/05/20 03:22:48;;;;;;;18.97;11.80;;;13.00;99.90;;;;;;5030353;28;20479;-54
2022/05/20 03:25:14;;;;;;;18.80;12.40;;;13.00;1.00;;;;;;5030631;28;20429;-54
2022/05/20 03:27:40;;;;;;;16.70;11.50;;;13.10;99.90;;;;;;5031796;28;20203;-54
2022/05/20 03:30:08;;;;;;;12.60;10.70;;;13.00;99.90;;;;;;5034713;28;20463;-54
2022/05/20 03:32:34;;;;;;;17.37;10.70;;;13.10;99.90;;;;;;5034038;28;20812;-54
2022/05/20 03:34:59;;;;;;;15.70;10.10;;;13.00;99.90;;;;;;5034462;28;20457;-54
2022/05/20 03:37:25;;;;;;;13.67;9.47;;;13.10;99.90;;;;;;5034431;28;20982;-54
2022/05/20 03:39:52;;;;;;;14.97;9.43;;;13.00;99.90;;;;;;5034146;28;20226;-54
2022/05/20 03:42:17;;;;;;;14.93;10.50;;;13.00;99.90;;;;;;5033927;28;20413;-54
2022/05/20 03:44:43;;;;;;;15.33;11.80;;;13.00;99.90;;;;;;5034765;28;20436;-54
2022/05/20 03:47:08;;;;;;;16.13;10.53;;;13.00;99.90;;;;;;5033710;28;20194;-54
2022/05/20 03:49:34;;;;;;;21.07;11.83;;;13.00;99.90;;;;;;5034242;28;20218;-54
2022/05/20 03:51:59;;;;;;;19.23;10.03;;;13.10;1.00;;;;;;5034299;28;20187;-54
2022/05/20 03:54:29;;;;;;;22.57;11.97;;;13.10;69.70;;;;;;5033676;28;20225;-57
2022/05/20 03:56:54;;;;;;;20.80;11.73;;;13.10;20.50;;;;;;5033715;28;20214;-54
2022/05/20 03:59:20;;;;;;;13.13;10.43;;;13.10;99.90;;;;;;5033446;28;20464;-54
2022/05/20 04:01:57;;;;;;;17.80;11.40;;;13.10;84.20;;;;;;5032455;28;20215;-54
2022/05/20 04:04:41;;;;;;;14.80;10.70;;;13.10;1.00;;;;;;5033759;28;20186;-54
2022/05/20 04:07:09;;;;;;;14.90;10.60;;;13.10;1.00;;;;;;5033345;28;20449;-54
2022/05/20 04:09:35;;;;;;;12.93;9.43;;;13.10;99.90;;;;;;5033342;28;20437;-54
2022/05/20 04:12:04;;;;;;;14.90;9.20;;;13.10;99.90;;;;;;5033158;28;20539;-54
2022/05/20 04:14:31;;;;;;;16.90;10.13;;;13.20;99.90;;;;;;5033605;28;20214;-54
2022/05/20 04:16:57;;;;;;;19.00;10.00;;;13.20;1.00;;;;;;5033055;28;20425;-54
2022/05/20 04:19:28;;;;;;;18.23;10.27;;;13.30;99.90;;;;;;5033300;28;20480;-54
2022/05/20 04:21:58;;;;;;;18.30;10.33;;;13.30;99.90;;;;;;5033229;28;20441;-54
2022/05/20 04:24:24;;;;;;;13.47;9.53;;;13.40;99.90;;;;;;5033000;28;20430;-54
2022/05/20 04:26:50;;;;;;;16.87;10.50;;;13.40;99.90;;;;;;5033282;28;20488;-54
2022/05/20 04:29:16;;;;;;;12.03;9.97;;;13.30;99.90;;;;;;5033734;28;20410;-54
2022/05/20 04:31:47;;;;;;;19.30;9.13;;;13.40;99.90;;;;;;5033274;28;20186;-54
2022/05/20 04:34:13;;;;;;;17.93;10.30;;;13.40;99.90;;;;;;5033058;28;20465;-54
2022/05/20 04:36:39;;;;;;;18.07;9.80;;;13.40;99.90;;;;;;5032180;28;20430;-54
2022/05/20 04:39:05;;;;;;;13.73;9.37;;;13.40;99.90;;;;;;5032762;28;20426;-54
2022/05/20 04:47:01;;;;;;;15.10;9.80;;;13.40;1.00;;;;;;5033014;28;20444;-54
2022/05/20 04:49:32;;;;;;;19.10;10.10;;;13.40;28.00;;;;;;5031636;28;20426;-54
2022/05/20 04:52:00;;;;;;;14.93;10.27;;;13.40;1.30;;;;;;5032848;28;21342;-54
2022/05/20 04:57:19;;;;;;;18.93;10.17;;;13.50;8.10;;;;;;5032698;28;20475;-53
2022/05/20 04:59:45;;;;;;;14.87;10.37;;;13.50;1.00;;;;;;5032484;28;20818;-54
2022/05/20 05:02:12;;;;;;;21.33;11.30;;;13.60;1.00;;;;;;5032143;28;20428;-54
2022/05/20 05:04:37;;;;;;;19.10;11.07;;;13.70;1.00;;;;;;5031116;28;20533;-54
2022/05/20 05:07:03;;;;;;;19.50;9.90;;;13.60;1.00;;;;;;5032373;28;21052;-54
2022/05/20 05:09:29;;;;;;;15.30;10.93;;;13.70;1.00;;;;;;5032220;28;20266;-54
2022/05/20 05:11:54;;;;;;;15.23;9.30;;;13.80;1.00;;;;;;5032475;28;20908;-53
2022/05/20 05:14:20;;;;;;;16.67;9.20;;;13.90;1.00;;;;;;5031978;28;20225;-54
2022/05/20 05:16:46;;;;;;;19.83;10.30;;;14.00;1.00;;;;;;5032408;28;20228;-54
2022/05/20 05:19:12;;;;;;;12.03;9.73;;;14.20;99.90;;;;;;5032042;28;20569;-54
2022/05/20 05:21:37;;;;;;;18.20;9.00;;;14.20;99.90;;;;;;5032332;28;20213;-53
2022/05/20 05:24:04;;;;;;;15.30;9.43;;;14.30;99.90;;;;;;5031919;28;20772;-54
2022/05/20 05:26:32;;;;;;;19.97;10.50;;;14.40;99.90;;;;;;5032185;28;20198;-54
2022/05/20 05:28:58;;;;;;;16.40;8.80;;;14.40;99.90;;;;;;5031948;28;20437;-54
2022/05/20 05:31:25;;;;;;;10.37;7.70;;;14.60;99.90;;;;;;5032097;28;20437;-54
2022/05/20 05:33:51;;;;;;;13.37;9.20;;;14.80;69.80;;;;;;5031520;28;20524;-53
2022/05/20 05:36:18;;;;;;;16.90;6.50;;;14.90;5.30;;;;;;5032119;28;20438;-53
2022/05/20 05:38:43;;;;;;;19.63;7.23;;;14.90;1.00;;;;;;5031979;28;20190;-53
2022/05/20 05:41:10;;;;;;;11.03;7.20;;;15.00;1.00;;;;;;5032276;28;20923;-54
2022/05/20 05:43:36;;;;;;;18.40;7.03;;;15.20;99.90;;;;;;5031734;28;20194;-53
2022/05/20 05:46:02;;;;;;;15.73;7.07;;;15.40;99.90;;;;;;5031799;28;20764;-56
2022/05/20 05:48:27;;;;;;;10.17;6.30;;;15.50;99.90;;;;;;5031640;28;20472;-53
2022/05/20 05:50:55;;;;;;;7.93;6.40;;;15.70;99.90;;;;;;5031141;28;20197;-53
2022/05/20 05:53:23;;;;;;;9.80;4.60;;;16.10;99.90;;;;;;5031003;28;20202;-53
2022/05/20 05:55:53;;;;;;;7.60;4.60;;;16.50;99.90;;;;;;5032003;28;20465;-53
2022/05/20 05:58:19;;;;;;;7.73;4.70;;;16.60;99.90;;;;;;5031343;28;20414;-53
2022/05/20 06:00:45;;;;;;;8.80;5.17;;;16.60;99.90;;;;;;5031644;28;20441;-53
2022/05/20 06:03:11;;;;;;;10.90;4.90;;;16.40;99.90;;;;;;5031434;28;20183;-53
2022/05/20 06:05:37;;;;;;;8.60;4.80;;;16.20;99.90;;;;;;5031809;28;20501;-53
2022/05/20 06:08:02;;;;;;;9.00;4.10;;;16.10;99.90;;;;;;5031151;28;20572;-53
2022/05/20 06:10:29;;;;;;;11.03;4.80;;;15.70;99.90;;;;;;5031329;28;20187;-63
2022/05/20 06:12:57;;;;;;;11.50;4.90;;;15.60;99.90;;;;;;5031168;28;20231;-53
2022/05/20 06:15:23;;;;;;;4.43;3.37;;;15.50;99.90;;;;;;5031335;28;20457;-54
2022/05/20 06:17:49;;;;;;;7.90;4.03;;;15.30;99.90;;;;;;5030671;28;20434;-53
2022/05/20 06:20:15;;;;;;;6.90;4.00;;;15.30;99.90;;;;;;5031375;28;20636;-53
2022/05/20 06:22:41;;;;;;;8.43;3.43;;;15.60;99.90;;;;;;5030904;28;20433;-53
2022/05/20 06:25:08;;;;;;;8.63;3.90;;;16.00;99.90;;;;;;5031130;28;20747;-53
2022/05/20 06:27:35;;;;;;;9.10;3.33;;;16.20;99.90;;;;;;5030757;28;20260;-53
2022/05/20 06:30:02;;;;;;;6.50;3.33;;;16.20;99.90;;;;;;5031228;28;20425;-52
2022/05/20 06:32:28;;;;;;;5.20;3.00;;;16.20;99.90;;;;;;5030369;28;20444;-53
2022/05/20 06:40:21;;;;;;;10.60;2.70;;;16.20;99.90;;;;;;5034525;28;20487;-52
2022/05/20 06:42:47;;;;;;;3.57;2.60;;;16.40;99.90;;;;;;5029561;28;20430;-52
2022/05/20 06:45:14;;;;;;;11.60;2.90;;;16.50;99.90;;;;;;5032149;28;20202;-53
2022/05/20 06:47:40;;;;;;;8.57;3.07;;;16.30;99.90;;;;;;5027780;28;20268;-53
2022/05/20 06:50:08;;;;;;;8.40;2.87;;;16.30;99.90;;;;;;5035142;28;20437;-53
2022/05/20 06:52:33;;;;;;;7.00;2.70;;;16.20;99.90;;;;;;5030784;28;20457;-53
2022/05/20 06:54:59;;;;;;;7.40;3.40;;;16.10;99.90;;;;;;5030545;28;20899;-52
2022/05/20 06:57:25;;;;;;;14.13;2.43;;;16.10;99.90;;;;;;5037299;28;20541;-52
2022/05/20 06:59:51;;;;;;;5.10;2.27;;;16.20;99.90;;;;;;5035275;28;20183;-52
2022/05/20 07:02:17;;;;;;;7.00;2.70;;;16.60;99.90;;;;;;5042172;28;20180;-52
2022/05/20 07:04:43;;;;;;;7.00;2.50;;;16.70;99.90;;;;;;5044797;28;20452;-53
2022/05/20 07:07:08;;;;;;;7.83;2.80;;;16.80;99.90;;;;;;5052698;28;20216;-53
2022/05/20 07:09:35;;;;;;;9.00;2.87;;;16.60;99.90;;;;;;5044990;28;20309;-52
2022/05/20 07:12:01;;;;;;;7.67;3.30;;;16.20;99.90;;;;;;5028067;28;20227;-53
2022/05/20 07:14:26;;;;;;;8.00;3.07;;;16.10;99.90;;;;;;5034321;28;20965;-52
2022/05/20 07:16:52;;;;;;;6.17;3.03;;;16.70;99.90;;;;;;5044991;28;20186;-52
2022/05/20 07:19:18;;;;;;;7.67;3.20;;;17.10;99.90;;;;;;5035525;28;20198;-52
2022/05/20 07:21:43;;;;;;;6.93;2.77;;;17.20;99.90;;;;;;5041135;28;20475;-52
2022/05/20 07:24:09;;;;;;;4.20;2.70;;;17.20;99.90;;;;;;5036089;28;20179;-52
2022/05/20 07:26:36;;;;;;;5.80;3.60;;;17.00;99.90;;;;;;5034645;28;20183;-52
2022/05/20 07:29:03;;;;;;;5.00;2.70;;;16.90;99.90;;;;;;5035745;28;20418;-52
2022/05/20 07:31:28;;;;;;;6.87;2.63;;;16.50;99.90;;;;;;5035921;28;20432;-53
2022/05/20 07:33:54;;;;;;;4.40;2.90;;;16.40;99.90;;;;;;5035326;28;20469;-50
2022/05/20 07:36:20;;;;;;;10.30;3.03;;;16.60;99.90;;;;;;5035631;28;20179;-51
2022/05/20 07:38:46;;;;;;;4.77;2.53;;;17.00;99.90;;;;;;5050892;28;20186;-52
2022/05/20 07:41:12;;;;;;;9.23;3.00;;;17.20;99.90;;;;;;5035833;28;20402;-52
2022/05/20 07:43:39;;;;;;;7.97;3.03;;;17.70;99.90;;;;;;5035591;28;20182;-52
2022/05/20 07:46:05;;;;;;;6.00;2.60;;;18.00;99.90;;;;;;5035330;28;20528;-52
2022/05/20 07:48:30;;;;;;;3.63;2.40;;;17.90;99.90;;;;;;5035206;28;20421;-52
2022/05/20 07:51:17;;;;;;;8.77;2.30;;;18.00;99.90;;;;;;5035367;28;20437;-52
2022/05/20 07:53:49;;;;;;;7.90;2.53;;;18.50;99.90;;;;;;5035167;28;20210;-55
2022/05/20 07:56:20;;;;;;;5.10;2.50;;;19.00;99.90;;;;;;5035445;28;20406;-52
2022/05/20 07:58:50;;;;;;;7.47;2.70;;;19.40;99.90;;;;;;5034620;28;20445;-52
2022/05/20 08:01:18;;;;;;;7.40;2.30;;;19.70;99.90;;;;;;5035298;28;20853;-52
2022/05/20 08:06:30;;;;;;;10.40;2.50;;;20.90;99.90;;;;;;5035282;28;20988;-53
2022/05/20 08:08:56;;;;;;;5.17;2.60;;;21.70;99.90;;;;;;5035209;28;20525;-53
2022/05/20 08:11:21;;;;;;;6.87;2.57;;;21.40;99.90;;;;;;5033892;28;20300;-53
2022/05/20 08:13:50;;;;;;;9.80;3.20;;;20.50;99.90;;;;;;5034318;28;20446;-53
2022/05/20 08:16:16;;;;;;;5.83;2.70;;;19.50;99.90;;;;;;5035909;28;20648;-53
2022/05/20 08:18:41;;;;;;;5.10;2.20;;;19.10;99.90;;;;;;5034767;28;20461;-53
2022/05/20 08:21:07;;;;;;;9.83;3.17;;;19.50;99.90;;;;;;5034197;28;20187;-50
2022/05/20 08:23:33;;;;;;;6.20;2.40;;;20.00;99.90;;;;;;5032594;28;20190;-51
2022/05/20 08:25:58;;;;;;;4.50;2.40;;;20.00;99.90;;;;;;5033151;28;20556;-51
2022/05/20 08:28:24;;;;;;;5.23;2.30;;;19.70;99.90;;;;;;5032651;28;20221;-50
2022/05/20 08:30:49;;;;;;;5.17;2.90;;;19.50;99.90;;;;;;5033378;28;20281;-51
2022/05/20 08:33:15;;;;;;;5.27;2.40;;;20.10;99.90;;;;;;5032838;28;20241;-50
2022/05/20 08:35:40;;;;;;;6.27;2.30;;;20.70;99.90;;;;;;5032605;28;20284;-50
2022/05/20 08:38:06;;;;;;;6.70;2.60;;;20.90;99.90;;;;;;5032567;28;20655;-50
2022/05/20 08:40:43;;;;;;;5.83;2.40;;;20.30;99.90;;;;;;5032835;28;20183;-53
2022/05/20 08:43:10;;;;;;;3.73;2.30;;;20.20;99.90;;;;;;5032710;28;20182;-52
2022/05/20 08:45:36;;;;;;;10.27;2.20;;;20.60;99.90;;;;;;5017922;28;20770;-53
2022/05/20 08:48:05;;;;;;;5.10;2.33;;;21.00;99.90;;;;;;5032589;28;20443;-52
2022/05/20 08:50:50;;;;;;;3.23;2.17;;;21.60;99.90;;;;;;5033064;28;20194;-53
2022/05/20 08:53:28;;;;;;;4.83;2.03;;;22.30;99.90;;;;;;5032588;28;20427;-52
2022/05/20 08:55:58;;;;;;;5.60;2.20;;;22.90;99.90;;;;;;5023958;28;20469;-53
2022/05/20 08:58:26;;;;;;;3.20;2.20;;;23.30;99.90;;;;;;5027642;28;20418;-53
2022/05/20 09:00:51;;;;;;;4.00;2.30;;;23.40;99.90;;;;;;5032115;28;20421;-53
2022/05/20 09:03:17;;;;;;;4.20;1.80;;;23.20;99.90;;;;;;5032319;28;20416;-54
2022/05/20 09:05:44;;;;;;;6.13;2.50;;;22.80;99.90;;;;;;5032180;28;20202;-54
2022/05/20 09:08:15;;;;;;;3.70;1.93;;;22.90;99.90;;;;;;5032378;28;20521;-53
2022/05/20 09:10:51;;;;;;;6.30;2.40;;;22.70;99.90;;;;;;5032219;28;20418;-52
2022/05/20 09:16:24;;;;;;;6.23;2.30;;;22.30;99.90;;;;;;5031820;28;20444;-53
2022/05/20 09:19:02;;;;;;;6.23;1.90;;;22.60;99.90;;;;;;5031861;28;20441;-53
2022/05/20 09:21:40;;;;;;;7.43;2.10;;;22.60;99.90;;;;;;5032013;28;20802;-54
2022/05/20 09:24:12;;;;;;;9.77;2.23;;;22.70;99.90;;;;;;5031716;28;20429;-53
2022/05/20 09:26:42;;;;;;;2.60;2.10;;;22.60;99.90;;;;;;5031869;28;20402;-54
2022/05/20 09:29:26;;;;;;;6.90;2.70;;;22.90;99.90;;;;;;5031497;28;20430;-53
2022/05/20 09:31:58;;;;;;;6.00;3.03;;;23.30;99.90;;;;;;5031963;28;20398;-53
2022/05/20 09:34:26;;;;;;;4.73;2.40;;;23.20;99.90;;;;;;5031882;28;20837;-54
2022/05/20 09:37:16;;;;;;;6.37;4.03;;;23.50;99.90;;;;;;5031867;28;20417;-54
2022/05/20 09:39:47;;;;;;;4.73;2.20;;;23.50;99.90;;;;;;5031551;28;20437;-53
2022/05/20 09:42:17;;;;;;;4.30;2.43;;;23.40;99.90;;;;;;5031335;28;20432;-54
2022/05/20 09:44:52;;;;;;;5.30;2.27;;;23.40;99.90;;;;;;5031691;28;20422;-52
2022/05/20 09:47:38;;;;;;;5.00;2.40;;;23.50;99.90;;;;;;5030745;28;20441;-53
2022/05/20 09:50:34;;;;;;;6.20;3.00;;;23.50;99.90;;;;;;5031377;28;20445;-53
2022/05/20 09:53:10;;;;;;;5.70;2.40;;;23.30;99.90;;;;;;5031152;28;20460;-53
2022/05/20 09:55:42;;;;;;;5.73;2.50;;;23.10;99.90;;;;;;5031084;28;20559;-53
2022/05/20 09:58:18;;;;;;;7.00;3.07;;;23.00;99.90;;;;;;5031302;28;20417;-56
2022/05/20 10:00:54;;;;;;;3.77;2.00;;;23.20;99.90;;;;;;5030864;28;20441;-53
2022/05/20 10:03:32;;;;;;;8.73;2.60;;;23.70;99.90;;;;;;5031163;28;20442;-54
2022/05/20 10:06:16;;;;;;;5.00;2.90;;;24.10;99.90;;;;;;5028929;28;20536;-53
2022/05/20 10:08:56;;;;;;;2.87;2.33;;;24.10;99.90;;;;;;5031339;28;20429;-55
2022/05/20 10:11:30;;;;;;;3.97;3.07;;;24.40;99.90;;;;;;5030653;28;20445;-52
2022/05/20 10:14:05;;;;;;;9.73;2.30;;;24.50;99.90;;;;;;5031231;28;20430;-52
2022/05/20 10:16:39;;;;;;;4.63;2.20;;;24.60;99.90;;;;;;5029654;28;20430;-52
2022/05/20 10:19:15;;;;;;;5.40;2.57;;;24.60;99.90;;;;;;5030708;28;20429;-52
2022/05/20 10:22:15;;;;;;;4.80;2.70;;;24.60;99.90;;;;;;5030563;28;20432;-53
2022/05/20 10:25:05;;;;;;;5.00;2.20;;;24.60;99.90;;;;;;5030827;28;20868;-52
2022/05/20 10:32:33;;;;;;;4.20;2.47;;;24.60;99.90;;;;;;5030840;28;20408;-53
2022/05/20 10:33:44;;;;;;;4.37;2.00;;;25.20;99.90;;;;;;5020199;28;20894;-54
2022/05/20 10:36:14;;;;;;;5.67;2.47;;;25.40;99.90;;;;;;5030496;28;20509;-53
2022/05/20 10:38:49;;;;;;;5.23;1.97;;;25.70;99.90;;;;;;5030104;28;20179;-53
2022/05/20 10:41:48;;;;;;;4.90;2.80;;;25.70;99.90;;;;;;5031043;28;21317;-53
2022/05/20 10:51:17;;;;;;;3.63;2.17;;;25.10;99.90;;;;;;5011081;28;20468;-53
2022/05/20 10:53:57;;;;;;;8.03;2.77;;;25.30;99.90;;;;;;5027220;28;20902;-52
2022/05/20 10:56:42;;;;;;;3.03;2.27;;;25.70;99.90;;;;;;5030630;28;20814;-52
2022/05/20 10:59:16;;;;;;;4.33;2.23;;;26.10;99.90;;;;;;5030470;28;20529;-52
2022/05/20 11:02:03;;;;;;;3.80;2.20;;;26.10;99.90;;;;;;5030596;28;20413;-52
2022/05/20 11:04:39;;;;;;;6.73;2.67;;;26.10;99.90;;;;;;5030061;28;20429;-53
2022/05/20 11:07:13;;;;;;;6.03;2.40;;;25.60;99.90;;;;;;5030657;28;20421;-54
2022/05/20 11:10:04;;;;;;;3.73;2.70;;;25.30;99.90;;;;;;5030237;28;20430;-53
2022/05/20 11:12:42;;;;;;;4.70;2.80;;;25.60;99.90;;;;;;5030293;28;20472;-53
2022/05/20 11:15:27;;;;;;;4.67;2.80;;;26.00;99.90;;;;;;5030582;28;20475;-53
2022/05/20 11:18:17;;;;;;;6.80;2.70;;;25.50;99.90;;;;;;5030355;28;20414;-53
2022/05/20 11:20:52;;;;;;;3.20;2.70;;;25.10;99.90;;;;;;5030442;28;20835;-53
2022/05/20 11:23:52;;;;;;;5.13;2.40;;;25.10;99.90;;;;;;5030283;28;20437;-54
2022/05/20 11:26:58;;;;;;;4.97;2.53;;;25.10;99.90;;;;;;5030309;28;20429;-53
2022/05/20 11:29:32;;;;;;;4.40;2.33;;;25.40;99.90;;;;;;5029774;28;20421;-53
2022/05/20 11:32:07;;;;;;;6.00;2.57;;;26.00;99.90;;;;;;5030513;28;20516;-54
2022/05/20 11:34:57;;;;;;;5.23;2.20;;;26.40;99.90;;;;;;5030129;28;20793;-54
2022/05/20 11:37:42;;;;;;;10.80;2.70;;;26.30;99.90;;;;;;5029146;28;20437;-53
2022/05/20 11:40:32;;;;;;;3.20;2.10;;;25.90;99.90;;;;;;5030973;28;20915;-54
2022/05/20 11:43:22;;;;;;;4.13;2.53;;;26.00;99.90;;;;;;5048094;28;20451;-53
2022/05/20 11:45:54;;;;;;;6.67;2.50;;;26.70;99.90;;;;;;5042431;28;20426;-54
2022/05/20 11:48:25;;;;;;;4.30;2.47;;;27.30;99.90;;;;;;5034989;28;20447;-53
2022/05/20 11:51:18;;;;;;;3.50;2.37;;;27.60;99.90;;;;;;5044355;28;20434;-53
2022/05/20 11:53:54;;;;;;;4.60;2.60;;;27.60;99.90;;;;;;5032901;28;20448;-53
2022/05/20 11:56:26;;;;;;;4.73;3.03;;;27.60;99.90;;;;;;5032513;28;20433;-53
2022/05/20 11:59:15;;;;;;;7.57;3.67;;;27.60;99.90;;;;;;5033010;28;20437;-53
2022/05/20 12:01:41;;;;;;;4.30;3.07;;;27.10;99.90;;;;;;5021410;28;20433;-53
2022/05/20 12:04:08;;;;;;;3.90;2.20;;;26.90;99.90;;;;;;5033256;28;20480;-53
2022/05/20 12:06:47;;;;;;;4.93;2.90;;;26.30;99.90;;;;;;5036833;28;20439;-53
2022/05/20 12:09:53;;;;;;;8.00;3.27;;;25.90;99.90;;;;;;5053353;28;20413;-53
2022/05/20 12:12:33;;;;;;;5.30;3.73;;;25.50;99.90;;;;;;5016802;28;20485;-53
2022/05/20 12:15:01;;;;;;;3.90;3.00;;;25.00;99.90;;;;;;5031685;28;20535;-53
2022/05/20 12:17:46;;;;;;;6.03;3.10;;;24.70;99.90;;;;;;5032878;28;20441;-52
2022/05/20 12:26:04;;;;;;;6.80;3.33;;;23.90;99.90;;;;;;5033020;28;20429;-52
2022/05/20 12:28:33;;;;;;;5.17;3.40;;;23.90;99.90;;;;;;5041354;28;20777;-53
2022/05/20 12:31:23;;;;;;;3.83;3.40;;;23.90;99.90;;;;;;5049434;28;20186;-52
2022/05/20 12:34:03;;;;;;;5.70;3.77;;;24.10;99.90;;;;;;5036141;28;20996;-52
2022/05/20 12:36:29;;;;;;;3.93;3.63;;;24.20;99.90;;;;;;5025996;28;20449;-52
2022/05/20 12:39:19;;;;;;;4.37;3.47;;;24.30;99.90;;;;;;5032818;28;20410;-53
2022/05/20 12:41:47;;;;;;;10.27;3.57;;;24.30;99.90;;;;;;5026570;28;20202;-52
2022/05/20 12:44:15;;;;;;;4.13;3.37;;;24.40;99.90;;;;;;5032937;28;20991;-53
2022/05/20 12:47:18;;;;;;;5.10;3.77;;;24.50;99.90;;;;;;5039372;28;20438;-53
2022/05/20 12:49:47;;;;;;;4.63;3.50;;;24.70;99.90;;;;;;5045502;28;20443;-52
2022/05/20 12:52:15;;;;;;;4.60;4.00;;;25.20;99.90;;;;;;5035801;28;20421;-53
2022/05/20 12:54:47;;;;;;;4.10;3.60;;;25.50;99.90;;;;;;5031347;28;20548;-52
2022/05/20 12:57:22;;;;;;;6.40;4.10;;;25.60;99.90;;;;;;5031479;28;20483;-52
2022/05/20 12:59:54;;;;;;;6.57;4.40;;;25.50;99.90;;;;;;5012503;28;20426;-51
2022/05/20 13:02:21;;;;;;;6.30;4.43;;;25.30;99.90;;;;;;5028691;28;20491;-53
2022/05/20 13:05:18;;;;;;;5.20;4.10;;;24.90;99.90;;;;;;5045477;28;20444;-52
2022/05/20 13:07:45;;;;;;;5.50;3.60;;;24.60;99.90;;;;;;5031744;28;20782;-53
2022/05/20 13:10:24;;;;;;;8.23;3.80;;;24.80;99.90;;;;;;5042414;28;20444;-53
2022/05/20 13:12:52;;;;;;;4.67;4.03;;;25.10;99.90;;;;;;5032124;28;20546;-53
2022/05/20 13:15:19;;;;;;;6.37;4.73;;;25.30;99.90;;;;;;5037314;28;20492;-52
2022/05/20 13:17:56;;;;;;;5.97;4.03;;;25.40;99.90;;;;;;5034865;28;20431;-53
2022/05/20 13:20:23;;;;;;;4.93;3.63;;;25.90;99.90;;;;;;5052030;28;20476;-53
2022/05/20 13:22:50;;;;;;;6.53;3.90;;;26.40;99.90;;;;;;5040312;28;20436;-53
2022/05/20 13:25:18;;;;;;;4.93;4.17;;;26.80;99.90;;;;;;5043934;28;20790;-53
2022/05/20 13:27:46;;;;;;;4.13;3.70;;;26.90;99.90;;;;;;5031788;28;20516;-53
2022/05/20 13:30:17;;;;;;;4.43;3.67;;;27.10;99.90;;;;;;5034803;28;20528;-52
2022/05/20 13:32:43;;;;;;;5.47;3.57;;;27.40;99.90;;;;;;5044091;28;20587;-53
2022/05/20 13:35:09;;;;;;;5.00;3.80;;;27.50;99.90;;;;;;5046905;28;20555;-54
2022/05/20 13:37:39;;;;;;;3.67;3.30;;;27.80;99.90;;;;;;5030699;28;20186;-53
2022/05/20 13:40:14;;;;;;;4.70;3.13;;;28.00;99.90;;;;;;5031614;28;21220;-52
2022/05/20 13:42:45;;;;;;;5.57;3.37;;;28.20;99.90;;;;;;5025507;28;20437;-52
2022/05/20 13:45:13;;;;;;;3.33;3.00;;;28.40;99.90;;;;;;5024738;28;20915;-53